sensor_id;sensor_type;location;lat;lon;timestamp;P1;durP1;ratioP1;P2;durP2;ratioP2
1925;SDS011;964;42.606;23.588;2022-11-18T00:02:05;16.97;;;11.70;;
1925;SDS011;964;42.606;23.588;2022-11-18T00:04:32;17.77;;;11.93;;
1925;SDS011;964;42.606;23.588;2022-11-18T00:06:58;15.70;;;9.47;;
1925;SDS011;964;42.606;23.588;2022-11-18T00:09:25;15.60;;;10.27;;
1925;SDS011;964;42.606;23.588;2022-11-18T00:11:52;15.83;;;11.30;;
1925;SDS011;964;42.606;23.588;2022-11-18T00:14:36;15.80;;;9.97;;
1925;SDS011;964;42.606;23.588;2022-11-18T00:17:03;10.07;;;7.97;;
1925;SDS011;964;42.606;23.588;2022-11-18T00:19:32;8.53;;;7.70;;
1925;SDS011;964;42.606;23.588;2022-11-18T00:22:01;8.90;;;7.47;;
1925;SDS011;964;42.606;23.588;2022-11-18T00:24:28;10.33;;;5.13;;
1925;SDS011;964;42.606;23.588;2022-11-18T00:26:55;7.53;;;5.60;;
1925;SDS011;964;42.606;23.588;2022-11-18T00:29:22;8.03;;;5.13;;
1925;SDS011;964;42.606;23.588;2022-11-18T00:31:50;6.73;;;4.70;;
1925;SDS011;964;42.606;23.588;2022-11-18T00:34:18;5.97;;;4.13;;
1925;SDS011;964;42.606;23.588;2022-11-18T00:36:45;4.30;;;3.90;;
1925;SDS011;964;42.606;23.588;2022-11-18T00:39:13;5.87;;;4.37;;
1925;SDS011;964;42.606;23.588;2022-11-18T00:41:41;7.73;;;4.73;;
1925;SDS011;964;42.606;23.588;2022-11-18T00:44:25;5.93;;;4.10;;
1925;SDS011;964;42.606;23.588;2022-11-18T00:46:52;6.40;;;4.80;;
1925;SDS011;964;42.606;23.588;2022-11-18T00:49:20;7.53;;;4.70;;
1925;SDS011;964;42.606;23.588;2022-11-18T00:51:47;6.40;;;4.80;;
1925;SDS011;964;42.606;23.588;2022-11-18T00:54:14;6.53;;;4.20;;
1925;SDS011;964;42.606;23.588;2022-11-18T00:56:41;7.40;;;6.10;;
1925;SDS011;964;42.606;23.588;2022-11-18T00:59:08;9.57;;;6.87;;
1925;SDS011;964;42.606;23.588;2022-11-18T01:01:34;6.97;;;5.50;;
1925;SDS011;964;42.606;23.588;2022-11-18T01:04:01;7.37;;;4.90;;
1925;SDS011;964;42.606;23.588;2022-11-18T01:06:29;7.00;;;5.33;;
1925;SDS011;964;42.606;23.588;2022-11-18T01:08:56;6.27;;;4.13;;
1925;SDS011;964;42.606;23.588;2022-11-18T01:11:23;6.77;;;4.50;;
1925;SDS011;964;42.606;23.588;2022-11-18T01:14:07;6.50;;;5.07;;
1925;SDS011;964;42.606;23.588;2022-11-18T01:16:33;5.20;;;4.23;;
1925;SDS011;964;42.606;23.588;2022-11-18T01:19:00;7.63;;;4.57;;
1925;SDS011;964;42.606;23.588;2022-11-18T01:21:27;4.60;;;3.80;;
1925;SDS011;964;42.606;23.588;2022-11-18T01:23:55;6.57;;;4.80;;
1925;SDS011;964;42.606;23.588;2022-11-18T01:26:22;7.13;;;5.17;;
1925;SDS011;964;42.606;23.588;2022-11-18T01:28:49;13.30;;;5.60;;
1925;SDS011;964;42.606;23.588;2022-11-18T01:31:16;8.13;;;4.80;;
1925;SDS011;964;42.606;23.588;2022-11-18T01:33:44;12.60;;;5.33;;
1925;SDS011;964;42.606;23.588;2022-11-18T01:36:15;6.77;;;5.50;;
1925;SDS011;964;42.606;23.588;2022-11-18T01:38:43;7.43;;;4.90;;
1925;SDS011;964;42.606;23.588;2022-11-18T01:41:12;6.20;;;4.97;;
1925;SDS011;964;42.606;23.588;2022-11-18T01:43:50;8.47;;;5.90;;
1925;SDS011;964;42.606;23.588;2022-11-18T01:46:18;8.67;;;7.20;;
1925;SDS011;964;42.606;23.588;2022-11-18T01:48:46;8.93;;;7.07;;
1925;SDS011;964;42.606;23.588;2022-11-18T01:51:18;15.23;;;7.07;;
1925;SDS011;964;42.606;23.588;2022-11-18T01:53:49;11.27;;;7.93;;
1925;SDS011;964;42.606;23.588;2022-11-18T01:56:26;11.23;;;7.10;;
1925;SDS011;964;42.606;23.588;2022-11-18T01:58:58;9.10;;;7.57;;
1925;SDS011;964;42.606;23.588;2022-11-18T02:01:28;8.10;;;6.67;;
1925;SDS011;964;42.606;23.588;2022-11-18T02:03:55;10.40;;;7.17;;
1925;SDS011;964;42.606;23.588;2022-11-18T02:06:22;9.50;;;7.00;;
1925;SDS011;964;42.606;23.588;2022-11-18T02:08:48;9.43;;;6.60;;
1925;SDS011;964;42.606;23.588;2022-11-18T02:11:17;11.40;;;7.27;;
1925;SDS011;964;42.606;23.588;2022-11-18T02:14:03;9.60;;;6.47;;
1925;SDS011;964;42.606;23.588;2022-11-18T02:16:34;9.53;;;6.40;;
1925;SDS011;964;42.606;23.588;2022-11-18T02:19:11;11.70;;;6.77;;
1925;SDS011;964;42.606;23.588;2022-11-18T02:21:51;8.03;;;5.63;;
1925;SDS011;964;42.606;23.588;2022-11-18T02:24:34;8.17;;;6.07;;
1925;SDS011;964;42.606;23.588;2022-11-18T02:30:15;10.37;;;6.87;;
1925;SDS011;964;42.606;23.588;2022-11-18T02:32:44;8.70;;;6.30;;
1925;SDS011;964;42.606;23.588;2022-11-18T02:35:17;32.83;;;9.13;;
1925;SDS011;964;42.606;23.588;2022-11-18T02:37:52;10.20;;;7.70;;
1925;SDS011;964;42.606;23.588;2022-11-18T02:40:24;17.60;;;9.03;;
1925;SDS011;964;42.606;23.588;2022-11-18T02:42:55;17.80;;;11.30;;
1925;SDS011;964;42.606;23.588;2022-11-18T02:45:28;20.43;;;11.37;;
1925;SDS011;964;42.606;23.588;2022-11-18T02:47:57;25.27;;;12.17;;
1925;SDS011;964;42.606;23.588;2022-11-18T02:50:27;45.47;;;14.60;;
1925;SDS011;964;42.606;23.588;2022-11-18T02:52:57;26.00;;;13.10;;
1925;SDS011;964;42.606;23.588;2022-11-18T02:55:27;29.87;;;12.53;;
1925;SDS011;964;42.606;23.588;2022-11-18T02:57:56;68.23;;;13.60;;
1925;SDS011;964;42.606;23.588;2022-11-18T03:00:24;29.53;;;12.93;;
1925;SDS011;964;42.606;23.588;2022-11-18T03:02:52;37.90;;;14.10;;
1925;SDS011;964;42.606;23.588;2022-11-18T03:05:20;30.03;;;12.43;;
1925;SDS011;964;42.606;23.588;2022-11-18T03:07:53;66.30;;;13.87;;
1925;SDS011;964;42.606;23.588;2022-11-18T03:10:23;38.13;;;12.13;;
1925;SDS011;964;42.606;23.588;2022-11-18T03:12:57;67.50;;;14.10;;
1925;SDS011;964;42.606;23.588;2022-11-18T03:15:32;65.10;;;14.10;;
1925;SDS011;964;42.606;23.588;2022-11-18T03:18:09;47.13;;;14.20;;
1925;SDS011;964;42.606;23.588;2022-11-18T03:20:44;23.63;;;13.30;;
1925;SDS011;964;42.606;23.588;2022-11-18T03:23:16;33.17;;;11.80;;
1925;SDS011;964;42.606;23.588;2022-11-18T03:25:51;45.13;;;12.33;;
1925;SDS011;964;42.606;23.588;2022-11-18T03:28:21;12.60;;;7.30;;
1925;SDS011;964;42.606;23.588;2022-11-18T03:30:53;17.93;;;11.30;;
1925;SDS011;964;42.606;23.588;2022-11-18T03:33:27;18.43;;;9.47;;
1925;SDS011;964;42.606;23.588;2022-11-18T03:35:59;17.00;;;8.83;;
1925;SDS011;964;42.606;23.588;2022-11-18T03:38:29;20.73;;;11.50;;
1925;SDS011;964;42.606;23.588;2022-11-18T03:41:02;16.87;;;8.30;;
1925;SDS011;964;42.606;23.588;2022-11-18T03:43:35;15.40;;;9.37;;
1925;SDS011;964;42.606;23.588;2022-11-18T03:46:06;13.40;;;8.27;;
1925;SDS011;964;42.606;23.588;2022-11-18T03:48:40;12.30;;;8.40;;
1925;SDS011;964;42.606;23.588;2022-11-18T03:51:10;19.90;;;8.57;;
1925;SDS011;964;42.606;23.588;2022-11-18T03:53:42;20.13;;;9.87;;
1925;SDS011;964;42.606;23.588;2022-11-18T03:56:14;15.90;;;9.63;;
1925;SDS011;964;42.606;23.588;2022-11-18T03:58:46;16.70;;;8.70;;
1925;SDS011;964;42.606;23.588;2022-11-18T04:01:18;21.97;;;8.80;;
1925;SDS011;964;42.606;23.588;2022-11-18T04:03:52;21.53;;;8.20;;
1925;SDS011;964;42.606;23.588;2022-11-18T04:06:21;12.80;;;7.53;;
1925;SDS011;964;42.606;23.588;2022-11-18T04:08:55;26.33;;;9.20;;
1925;SDS011;964;42.606;23.588;2022-11-18T04:11:29;17.97;;;9.53;;
1925;SDS011;964;42.606;23.588;2022-11-18T04:14:17;21.50;;;9.77;;
1925;SDS011;964;42.606;23.588;2022-11-18T04:16:48;17.33;;;9.17;;
1925;SDS011;964;42.606;23.588;2022-11-18T04:19:18;16.00;;;9.67;;
1925;SDS011;964;42.606;23.588;2022-11-18T04:21:45;19.40;;;7.90;;
1925;SDS011;964;42.606;23.588;2022-11-18T04:24:13;10.43;;;7.00;;
1925;SDS011;964;42.606;23.588;2022-11-18T04:26:40;23.63;;;7.53;;
1925;SDS011;964;42.606;23.588;2022-11-18T04:29:07;28.03;;;8.73;;
1925;SDS011;964;42.606;23.588;2022-11-18T04:31:34;20.63;;;7.33;;
1925;SDS011;964;42.606;23.588;2022-11-18T04:34:01;22.80;;;11.23;;
1925;SDS011;964;42.606;23.588;2022-11-18T04:36:29;32.20;;;17.97;;
1925;SDS011;964;42.606;23.588;2022-11-18T04:38:55;26.83;;;14.97;;
1925;SDS011;964;42.606;23.588;2022-11-18T04:41:22;19.97;;;9.70;;
1925;SDS011;964;42.606;23.588;2022-11-18T04:44:09;32.07;;;13.83;;
1925;SDS011;964;42.606;23.588;2022-11-18T04:46:38;19.87;;;11.77;;
1925;SDS011;964;42.606;23.588;2022-11-18T04:49:06;13.60;;;9.70;;
1925;SDS011;964;42.606;23.588;2022-11-18T04:51:34;12.90;;;9.40;;
1925;SDS011;964;42.606;23.588;2022-11-18T04:54:01;14.50;;;8.57;;
1925;SDS011;964;42.606;23.588;2022-11-18T04:56:28;22.87;;;10.47;;
1925;SDS011;964;42.606;23.588;2022-11-18T04:58:55;14.67;;;8.53;;
1925;SDS011;964;42.606;23.588;2022-11-18T05:01:23;14.80;;;8.67;;
1925;SDS011;964;42.606;23.588;2022-11-18T05:03:49;22.00;;;7.70;;
1925;SDS011;964;42.606;23.588;2022-11-18T05:06:16;24.23;;;7.80;;
1925;SDS011;964;42.606;23.588;2022-11-18T05:08:44;18.37;;;8.80;;
1925;SDS011;964;42.606;23.588;2022-11-18T05:11:11;23.07;;;9.13;;
1925;SDS011;964;42.606;23.588;2022-11-18T05:13:55;13.50;;;8.30;;
1925;SDS011;964;42.606;23.588;2022-11-18T05:16:22;16.43;;;8.20;;
1925;SDS011;964;42.606;23.588;2022-11-18T05:18:49;31.20;;;8.70;;
1925;SDS011;964;42.606;23.588;2022-11-18T05:21:15;22.70;;;10.07;;
1925;SDS011;964;42.606;23.588;2022-11-18T05:23:42;14.90;;;9.37;;
1925;SDS011;964;42.606;23.588;2022-11-18T05:26:10;20.97;;;9.87;;
1925;SDS011;964;42.606;23.588;2022-11-18T05:28:37;20.53;;;9.00;;
1925;SDS011;964;42.606;23.588;2022-11-18T05:31:05;13.30;;;9.10;;
1925;SDS011;964;42.606;23.588;2022-11-18T05:33:32;26.53;;;9.60;;
1925;SDS011;964;42.606;23.588;2022-11-18T05:36:01;18.93;;;9.47;;
1925;SDS011;964;42.606;23.588;2022-11-18T05:38:30;20.33;;;12.47;;
1925;SDS011;964;42.606;23.588;2022-11-18T05:40:57;17.90;;;11.40;;
1925;SDS011;964;42.606;23.588;2022-11-18T05:43:25;14.67;;;9.07;;
1925;SDS011;964;42.606;23.588;2022-11-18T05:45:51;16.10;;;7.40;;
1925;SDS011;964;42.606;23.588;2022-11-18T05:48:18;17.60;;;7.23;;
1925;SDS011;964;42.606;23.588;2022-11-18T05:50:45;15.03;;;8.13;;
1925;SDS011;964;42.606;23.588;2022-11-18T05:53:13;14.77;;;6.53;;
1925;SDS011;964;42.606;23.588;2022-11-18T05:55:41;12.93;;;8.33;;
1925;SDS011;964;42.606;23.588;2022-11-18T05:58:13;16.10;;;8.37;;
1925;SDS011;964;42.606;23.588;2022-11-18T06:00:41;12.97;;;7.93;;
1925;SDS011;964;42.606;23.588;2022-11-18T06:03:11;10.70;;;6.43;;
1925;SDS011;964;42.606;23.588;2022-11-18T06:05:41;14.40;;;7.30;;
1925;SDS011;964;42.606;23.588;2022-11-18T06:08:08;14.67;;;7.27;;
1925;SDS011;964;42.606;23.588;2022-11-18T06:10:36;35.10;;;10.03;;
1925;SDS011;964;42.606;23.588;2022-11-18T06:13:08;44.43;;;9.30;;
1925;SDS011;964;42.606;23.588;2022-11-18T06:15:41;41.17;;;10.80;;
1925;SDS011;964;42.606;23.588;2022-11-18T06:18:10;27.67;;;9.70;;
1925;SDS011;964;42.606;23.588;2022-11-18T06:20:42;21.37;;;10.37;;
1925;SDS011;964;42.606;23.588;2022-11-18T06:23:09;20.67;;;8.70;;
1925;SDS011;964;42.606;23.588;2022-11-18T06:25:36;20.23;;;9.10;;
1925;SDS011;964;42.606;23.588;2022-11-18T06:28:05;22.73;;;9.70;;
1925;SDS011;964;42.606;23.588;2022-11-18T06:30:34;26.93;;;14.90;;
1925;SDS011;964;42.606;23.588;2022-11-18T06:33:02;74.60;;;29.80;;
1925;SDS011;964;42.606;23.588;2022-11-18T06:35:29;72.53;;;25.53;;
1925;SDS011;964;42.606;23.588;2022-11-18T06:37:55;61.73;;;26.23;;
1925;SDS011;964;42.606;23.588;2022-11-18T06:40:22;57.83;;;22.37;;
1925;SDS011;964;42.606;23.588;2022-11-18T06:42:50;50.23;;;22.43;;
1925;SDS011;964;42.606;23.588;2022-11-18T06:45:34;70.47;;;29.47;;
1925;SDS011;964;42.606;23.588;2022-11-18T06:48:02;66.40;;;22.93;;
1925;SDS011;964;42.606;23.588;2022-11-18T06:50:29;57.43;;;21.03;;
1925;SDS011;964;42.606;23.588;2022-11-18T06:52:58;58.10;;;23.10;;
1925;SDS011;964;42.606;23.588;2022-11-18T06:55:25;48.90;;;25.50;;
1925;SDS011;964;42.606;23.588;2022-11-18T06:57:52;38.17;;;17.93;;
1925;SDS011;964;42.606;23.588;2022-11-18T07:00:21;46.00;;;19.00;;
1925;SDS011;964;42.606;23.588;2022-11-18T07:02:47;43.23;;;15.73;;
1925;SDS011;964;42.606;23.588;2022-11-18T07:05:15;23.33;;;12.00;;
1925;SDS011;964;42.606;23.588;2022-11-18T07:07:42;33.83;;;12.97;;
1925;SDS011;964;42.606;23.588;2022-11-18T07:10:09;35.03;;;14.60;;
1925;SDS011;964;42.606;23.588;2022-11-18T07:12:35;31.17;;;16.03;;
1925;SDS011;964;42.606;23.588;2022-11-18T07:15:02;42.63;;;12.97;;
1925;SDS011;964;42.606;23.588;2022-11-18T07:17:29;34.77;;;14.70;;
1925;SDS011;964;42.606;23.588;2022-11-18T07:19:56;41.50;;;17.20;;
1925;SDS011;964;42.606;23.588;2022-11-18T07:22:24;34.70;;;18.23;;
1925;SDS011;964;42.606;23.588;2022-11-18T07:24:51;48.67;;;25.10;;
1925;SDS011;964;42.606;23.588;2022-11-18T07:27:18;31.97;;;20.63;;
1925;SDS011;964;42.606;23.588;2022-11-18T07:29:44;33.33;;;15.27;;
1925;SDS011;964;42.606;23.588;2022-11-18T07:32:11;22.20;;;13.00;;
1925;SDS011;964;42.606;23.588;2022-11-18T07:34:38;30.37;;;14.33;;
1925;SDS011;964;42.606;23.588;2022-11-18T07:37:04;24.10;;;14.23;;
1925;SDS011;964;42.606;23.588;2022-11-18T07:39:32;41.63;;;14.73;;
1925;SDS011;964;42.606;23.588;2022-11-18T07:41:59;24.60;;;12.50;;
1925;SDS011;964;42.606;23.588;2022-11-18T07:44:26;39.27;;;17.80;;
1925;SDS011;964;42.606;23.588;2022-11-18T07:46:52;45.03;;;18.30;;
1925;SDS011;964;42.606;23.588;2022-11-18T07:49:19;28.23;;;15.37;;
1925;SDS011;964;42.606;23.588;2022-11-18T07:51:46;29.50;;;16.40;;
1925;SDS011;964;42.606;23.588;2022-11-18T07:54:13;24.80;;;14.00;;
1925;SDS011;964;42.606;23.588;2022-11-18T07:56:42;24.97;;;15.40;;
1925;SDS011;964;42.606;23.588;2022-11-18T07:59:09;26.03;;;16.90;;
1925;SDS011;964;42.606;23.588;2022-11-18T08:01:35;25.50;;;16.17;;
1925;SDS011;964;42.606;23.588;2022-11-18T08:04:06;22.63;;;14.83;;
1925;SDS011;964;42.606;23.588;2022-11-18T08:06:34;24.00;;;15.80;;
1925;SDS011;964;42.606;23.588;2022-11-18T08:09:03;16.27;;;12.47;;
1925;SDS011;964;42.606;23.588;2022-11-18T08:11:31;15.20;;;10.60;;
1925;SDS011;964;42.606;23.588;2022-11-18T08:13:59;11.43;;;8.23;;
1925;SDS011;964;42.606;23.588;2022-11-18T08:16:26;12.30;;;9.00;;
1925;SDS011;964;42.606;23.588;2022-11-18T08:18:52;10.80;;;8.40;;
1925;SDS011;964;42.606;23.588;2022-11-18T08:21:20;11.33;;;7.50;;
1925;SDS011;964;42.606;23.588;2022-11-18T08:23:48;13.67;;;9.33;;
1925;SDS011;964;42.606;23.588;2022-11-18T08:26:16;12.97;;;10.27;;
1925;SDS011;964;42.606;23.588;2022-11-18T08:28:43;15.00;;;8.50;;
1925;SDS011;964;42.606;23.588;2022-11-18T08:31:13;12.07;;;9.70;;
1925;SDS011;964;42.606;23.588;2022-11-18T08:33:42;11.97;;;8.60;;
1925;SDS011;964;42.606;23.588;2022-11-18T08:36:11;10.67;;;7.40;;
1925;SDS011;964;42.606;23.588;2022-11-18T08:38:40;8.63;;;6.30;;
1925;SDS011;964;42.606;23.588;2022-11-18T08:41:08;13.27;;;8.10;;
1925;SDS011;964;42.606;23.588;2022-11-18T08:43:36;11.70;;;8.53;;
1925;SDS011;964;42.606;23.588;2022-11-18T08:46:03;13.47;;;9.30;;
1925;SDS011;964;42.606;23.588;2022-11-18T08:48:31;15.60;;;10.17;;
1925;SDS011;964;42.606;23.588;2022-11-18T08:50:58;16.17;;;10.20;;
1925;SDS011;964;42.606;23.588;2022-11-18T08:53:25;19.40;;;9.10;;
1925;SDS011;964;42.606;23.588;2022-11-18T08:55:53;15.33;;;8.13;;
1925;SDS011;964;42.606;23.588;2022-11-18T08:58:21;12.23;;;9.07;;
1925;SDS011;964;42.606;23.588;2022-11-18T09:00:48;11.83;;;9.20;;
1925;SDS011;964;42.606;23.588;2022-11-18T09:03:14;12.43;;;8.77;;
1925;SDS011;964;42.606;23.588;2022-11-18T09:05:43;15.93;;;10.37;;
1925;SDS011;964;42.606;23.588;2022-11-18T09:08:09;13.23;;;9.63;;
1925;SDS011;964;42.606;23.588;2022-11-18T09:10:36;16.57;;;11.20;;
1925;SDS011;964;42.606;23.588;2022-11-18T09:13:03;15.77;;;10.83;;
1925;SDS011;964;42.606;23.588;2022-11-18T09:15:30;16.60;;;10.50;;
1925;SDS011;964;42.606;23.588;2022-11-18T09:17:57;13.47;;;10.00;;
1925;SDS011;964;42.606;23.588;2022-11-18T09:20:24;17.53;;;9.73;;
1925;SDS011;964;42.606;23.588;2022-11-18T09:22:52;14.00;;;9.83;;
1925;SDS011;964;42.606;23.588;2022-11-18T09:25:19;15.00;;;10.27;;
1925;SDS011;964;42.606;23.588;2022-11-18T09:27:46;19.57;;;10.87;;
1925;SDS011;964;42.606;23.588;2022-11-18T09:30:12;12.63;;;9.80;;
1925;SDS011;964;42.606;23.588;2022-11-18T09:32:39;17.07;;;10.13;;
1925;SDS011;964;42.606;23.588;2022-11-18T09:35:06;16.83;;;11.10;;
1925;SDS011;964;42.606;23.588;2022-11-18T09:37:33;15.37;;;9.70;;
1925;SDS011;964;42.606;23.588;2022-11-18T09:40:01;17.40;;;11.30;;
1925;SDS011;964;42.606;23.588;2022-11-18T09:42:34;16.30;;;9.60;;
1925;SDS011;964;42.606;23.588;2022-11-18T09:45:16;15.60;;;9.63;;
1925;SDS011;964;42.606;23.588;2022-11-18T09:47:48;17.40;;;10.60;;
1925;SDS011;964;42.606;23.588;2022-11-18T09:50:16;20.90;;;11.00;;
1925;SDS011;964;42.606;23.588;2022-11-18T09:52:43;14.30;;;9.13;;
1925;SDS011;964;42.606;23.588;2022-11-18T09:55:19;11.30;;;8.87;;
1925;SDS011;964;42.606;23.588;2022-11-18T09:57:47;14.50;;;9.83;;
1925;SDS011;964;42.606;23.588;2022-11-18T10:00:15;13.30;;;9.27;;
1925;SDS011;964;42.606;23.588;2022-11-18T10:02:48;15.03;;;10.47;;
1925;SDS011;964;42.606;23.588;2022-11-18T10:05:23;18.43;;;10.77;;
1925;SDS011;964;42.606;23.588;2022-11-18T10:07:59;19.87;;;11.60;;
1925;SDS011;964;42.606;23.588;2022-11-18T10:10:37;15.20;;;10.10;;
1925;SDS011;964;42.606;23.588;2022-11-18T10:13:10;13.63;;;10.47;;
1925;SDS011;964;42.606;23.588;2022-11-18T10:15:45;14.90;;;10.00;;
1925;SDS011;964;42.606;23.588;2022-11-18T10:18:21;14.60;;;9.10;;
1925;SDS011;964;42.606;23.588;2022-11-18T10:20:58;13.50;;;8.47;;
1925;SDS011;964;42.606;23.588;2022-11-18T10:23:34;12.67;;;9.47;;
1925;SDS011;964;42.606;23.588;2022-11-18T10:26:12;11.50;;;9.20;;
1925;SDS011;964;42.606;23.588;2022-11-18T10:28:39;10.97;;;8.80;;
1925;SDS011;964;42.606;23.588;2022-11-18T10:31:07;14.93;;;9.50;;
1925;SDS011;964;42.606;23.588;2022-11-18T10:33:36;10.70;;;8.97;;
1925;SDS011;964;42.606;23.588;2022-11-18T10:36:07;13.57;;;9.70;;
1925;SDS011;964;42.606;23.588;2022-11-18T10:38:44;10.37;;;9.10;;
1925;SDS011;964;42.606;23.588;2022-11-18T10:41:11;11.97;;;8.60;;
1925;SDS011;964;42.606;23.588;2022-11-18T10:43:43;10.80;;;8.77;;
1925;SDS011;964;42.606;23.588;2022-11-18T10:46:16;12.33;;;8.90;;
1925;SDS011;964;42.606;23.588;2022-11-18T10:48:45;18.57;;;10.10;;
1925;SDS011;964;42.606;23.588;2022-11-18T10:51:22;13.40;;;10.80;;
1925;SDS011;964;42.606;23.588;2022-11-18T10:53:49;14.80;;;10.40;;
1925;SDS011;964;42.606;23.588;2022-11-18T10:56:17;10.80;;;9.40;;
1925;SDS011;964;42.606;23.588;2022-11-18T10:58:46;10.57;;;8.40;;
1925;SDS011;964;42.606;23.588;2022-11-18T11:01:18;9.70;;;8.13;;
1925;SDS011;964;42.606;23.588;2022-11-18T11:03:55;13.50;;;10.30;;
1925;SDS011;964;42.606;23.588;2022-11-18T11:09:04;11.63;;;9.50;;
1925;SDS011;964;42.606;23.588;2022-11-18T11:11:35;4.20;;;3.20;;
1925;SDS011;964;42.606;23.588;2022-11-18T11:14:14;2.53;;;2.33;;
1925;SDS011;964;42.606;23.588;2022-11-18T11:16:46;2.47;;;2.27;;
1925;SDS011;964;42.606;23.588;2022-11-18T11:19:20;4.50;;;3.10;;
1925;SDS011;964;42.606;23.588;2022-11-18T11:21:50;6.70;;;4.20;;
1925;SDS011;964;42.606;23.588;2022-11-18T11:24:17;4.23;;;3.20;;
1925;SDS011;964;42.606;23.588;2022-11-18T11:26:48;12.77;;;6.03;;
1925;SDS011;964;42.606;23.588;2022-11-18T11:29:24;5.43;;;2.73;;
1925;SDS011;964;42.606;23.588;2022-11-18T11:32:01;2.90;;;2.70;;
1925;SDS011;964;42.606;23.588;2022-11-18T11:34:36;53.20;;;17.07;;
1925;SDS011;964;42.606;23.588;2022-11-18T11:37:12;7.47;;;4.23;;
1925;SDS011;964;42.606;23.588;2022-11-18T11:39:49;6.77;;;3.90;;
1925;SDS011;964;42.606;23.588;2022-11-18T11:42:33;7.10;;;4.37;;
1925;SDS011;964;42.606;23.588;2022-11-18T11:45:17;7.90;;;4.70;;
1925;SDS011;964;42.606;23.588;2022-11-18T11:47:58;5.53;;;4.00;;
1925;SDS011;964;42.606;23.588;2022-11-18T11:50:39;2.70;;;2.37;;
1925;SDS011;964;42.606;23.588;2022-11-18T11:53:22;2.10;;;1.60;;
1925;SDS011;964;42.606;23.588;2022-11-18T11:55:58;1.23;;;1.03;;
1925;SDS011;964;42.606;23.588;2022-11-18T11:58:39;2.23;;;1.50;;
1925;SDS011;964;42.606;23.588;2022-11-18T12:01:16;1.50;;;1.40;;
1925;SDS011;964;42.606;23.588;2022-11-18T12:03:48;1.33;;;1.10;;
1925;SDS011;964;42.606;23.588;2022-11-18T12:06:18;2.30;;;1.33;;
1925;SDS011;964;42.606;23.588;2022-11-18T12:08:47;2.80;;;1.57;;
1925;SDS011;964;42.606;23.588;2022-11-18T12:11:26;1.50;;;1.40;;
1925;SDS011;964;42.606;23.588;2022-11-18T12:14:00;2.83;;;1.57;;
1925;SDS011;964;42.606;23.588;2022-11-18T12:16:34;2.40;;;2.20;;
1925;SDS011;964;42.606;23.588;2022-11-18T12:19:06;2.33;;;1.57;;
1925;SDS011;964;42.606;23.588;2022-11-18T12:21:52;4.00;;;3.60;;
1925;SDS011;964;42.606;23.588;2022-11-18T12:24:34;9.37;;;4.73;;
1925;SDS011;964;42.606;23.588;2022-11-18T12:27:09;8.97;;;4.87;;
1925;SDS011;964;42.606;23.588;2022-11-18T12:29:43;7.40;;;4.63;;
1925;SDS011;964;42.606;23.588;2022-11-18T12:32:33;4.07;;;2.83;;
1925;SDS011;964;42.606;23.588;2022-11-18T12:35:20;8.13;;;5.43;;
1925;SDS011;964;42.606;23.588;2022-11-18T12:38:00;10.77;;;6.40;;
1925;SDS011;964;42.606;23.588;2022-11-18T12:40:32;6.23;;;4.60;;
1925;SDS011;964;42.606;23.588;2022-11-18T12:43:01;6.27;;;3.40;;
1925;SDS011;964;42.606;23.588;2022-11-18T12:46:02;5.50;;;4.93;;
1925;SDS011;964;42.606;23.588;2022-11-18T12:48:33;5.13;;;3.80;;
1925;SDS011;964;42.606;23.588;2022-11-18T12:51:39;5.03;;;4.50;;
1925;SDS011;964;42.606;23.588;2022-11-18T12:54:14;5.90;;;4.60;;
1925;SDS011;964;42.606;23.588;2022-11-18T12:56:49;11.27;;;7.57;;
1925;SDS011;964;42.606;23.588;2022-11-18T12:59:24;10.10;;;6.40;;
1925;SDS011;964;42.606;23.588;2022-11-18T13:02:01;8.80;;;6.07;;
1925;SDS011;964;42.606;23.588;2022-11-18T13:04:41;5.90;;;4.83;;
1925;SDS011;964;42.606;23.588;2022-11-18T13:07:09;8.07;;;5.07;;
1925;SDS011;964;42.606;23.588;2022-11-18T13:09:58;7.60;;;5.20;;
1925;SDS011;964;42.606;23.588;2022-11-18T13:12:28;8.67;;;6.40;;
1925;SDS011;964;42.606;23.588;2022-11-18T13:14:56;11.03;;;6.83;;
1925;SDS011;964;42.606;23.588;2022-11-18T13:17:45;11.20;;;6.93;;
1925;SDS011;964;42.606;23.588;2022-11-18T13:20:22;10.57;;;6.10;;
1925;SDS011;964;42.606;23.588;2022-11-18T13:22:55;8.17;;;5.50;;
1925;SDS011;964;42.606;23.588;2022-11-18T13:25:41;3.77;;;3.43;;
1925;SDS011;964;42.606;23.588;2022-11-18T13:28:11;7.37;;;5.27;;
1925;SDS011;964;42.606;23.588;2022-11-18T13:30:47;9.97;;;5.93;;
1925;SDS011;964;42.606;23.588;2022-11-18T13:33:21;13.40;;;6.80;;
1925;SDS011;964;42.606;23.588;2022-11-18T13:35:48;9.27;;;7.27;;
1925;SDS011;964;42.606;23.588;2022-11-18T13:38:19;10.63;;;8.17;;
1925;SDS011;964;42.606;23.588;2022-11-18T13:40:48;7.23;;;4.80;;
1925;SDS011;964;42.606;23.588;2022-11-18T13:43:36;7.13;;;6.33;;
1925;SDS011;964;42.606;23.588;2022-11-18T13:46:04;11.93;;;5.27;;
1925;SDS011;964;42.606;23.588;2022-11-18T13:48:46;8.33;;;5.87;;
1925;SDS011;964;42.606;23.588;2022-11-18T13:51:19;8.23;;;5.60;;
1925;SDS011;964;42.606;23.588;2022-11-18T13:53:47;12.17;;;4.67;;
1925;SDS011;964;42.606;23.588;2022-11-18T13:56:15;8.57;;;6.70;;
1925;SDS011;964;42.606;23.588;2022-11-18T13:58:50;7.23;;;6.20;;
1925;SDS011;964;42.606;23.588;2022-11-18T14:01:21;15.27;;;9.73;;
1925;SDS011;964;42.606;23.588;2022-11-18T14:03:51;17.60;;;12.17;;
1925;SDS011;964;42.606;23.588;2022-11-18T14:06:25;7.20;;;5.27;;
1925;SDS011;964;42.606;23.588;2022-11-18T14:09:04;6.73;;;5.30;;
1925;SDS011;964;42.606;23.588;2022-11-18T14:11:36;10.57;;;4.97;;
1925;SDS011;964;42.606;23.588;2022-11-18T14:14:04;8.50;;;5.70;;
1925;SDS011;964;42.606;23.588;2022-11-18T14:16:33;6.50;;;5.37;;
1925;SDS011;964;42.606;23.588;2022-11-18T14:19:02;9.20;;;5.07;;
1925;SDS011;964;42.606;23.588;2022-11-18T14:21:30;6.90;;;4.47;;
1925;SDS011;964;42.606;23.588;2022-11-18T14:23:59;7.33;;;3.93;;
1925;SDS011;964;42.606;23.588;2022-11-18T14:26:27;8.23;;;4.97;;
1925;SDS011;964;42.606;23.588;2022-11-18T14:28:55;9.90;;;6.27;;
1925;SDS011;964;42.606;23.588;2022-11-18T14:31:24;11.27;;;7.00;;
1925;SDS011;964;42.606;23.588;2022-11-18T14:34:13;10.40;;;7.00;;
1925;SDS011;964;42.606;23.588;2022-11-18T14:36:43;9.90;;;8.70;;
1925;SDS011;964;42.606;23.588;2022-11-18T14:39:18;7.37;;;5.80;;
1925;SDS011;964;42.606;23.588;2022-11-18T14:41:48;15.67;;;10.50;;
1925;SDS011;964;42.606;23.588;2022-11-18T14:44:16;10.10;;;6.87;;
1925;SDS011;964;42.606;23.588;2022-11-18T14:46:44;9.63;;;7.10;;
1925;SDS011;964;42.606;23.588;2022-11-18T14:49:18;7.13;;;6.37;;
1925;SDS011;964;42.606;23.588;2022-11-18T14:51:46;10.90;;;7.27;;
1925;SDS011;964;42.606;23.588;2022-11-18T14:54:13;9.93;;;8.93;;
1925;SDS011;964;42.606;23.588;2022-11-18T14:56:41;7.40;;;6.20;;
1925;SDS011;964;42.606;23.588;2022-11-18T14:59:10;5.07;;;4.07;;
1925;SDS011;964;42.606;23.588;2022-11-18T15:01:38;5.30;;;4.30;;
1925;SDS011;964;42.606;23.588;2022-11-18T15:04:05;4.40;;;3.77;;
1925;SDS011;964;42.606;23.588;2022-11-18T15:06:34;5.77;;;5.17;;
1925;SDS011;964;42.606;23.588;2022-11-18T15:09:00;5.53;;;5.03;;
1925;SDS011;964;42.606;23.588;2022-11-18T15:11:27;11.40;;;6.90;;
1925;SDS011;964;42.606;23.588;2022-11-18T15:13:54;11.43;;;8.43;;
1925;SDS011;964;42.606;23.588;2022-11-18T15:16:21;9.50;;;7.20;;
1925;SDS011;964;42.606;23.588;2022-11-18T15:18:50;23.17;;;11.67;;
1925;SDS011;964;42.606;23.588;2022-11-18T15:21:18;32.47;;;13.63;;
1925;SDS011;964;42.606;23.588;2022-11-18T15:23:47;30.30;;;21.00;;
1925;SDS011;964;42.606;23.588;2022-11-18T15:26:15;20.43;;;13.47;;
1925;SDS011;964;42.606;23.588;2022-11-18T15:28:44;14.53;;;9.60;;
1925;SDS011;964;42.606;23.588;2022-11-18T15:31:11;9.80;;;8.27;;